Wednesday, May 23, 2018, 9:09 AM EDT
Back to Local

KEEN, Keene, Dillant-hopkins Airport

Location: Keene, NH, United States Lat: 42.9
Local Time: 9:09 AM EDT (13:09 GMT) Lon: -72.267
Time Zone: US/Eastern Elev: 488 ft

Show me the last for .
Show Decoded

2018-05-23 08:56 METAR KEEN 231256Z AUTO 00000KT 10SM FEW022 19/14 A2991 RMK AO2 SLP145 T01890144
                 =
2018-05-23 08:43 METAR KEEN 231243Z AUTO 00000KT 10SM FEW024 18/13 A2991 RMK AO2 =
2018-05-23 08:29 METAR KEEN 231229Z AUTO 00000KT 10SM SCT011 BKN024 17/14 A2991 RMK AO2 =
2018-05-23 07:56 METAR KEEN 231156Z AUTO 00000KT 10SM OVC013 14/13 A2991 RMK AO2 SLP146 70001
                 T01440128 10144 20128 51011 =
2018-05-23 07:40 METAR KEEN 231140Z AUTO 00000KT 10SM OVC013 14/13 A2991 RMK AO2 =
2018-05-23 07:15 METAR KEEN 231115Z AUTO 00000KT 10SM SCT008 OVC015 13/12 A2991 RMK AO2 =
2018-05-23 06:56 METAR KEEN 231056Z AUTO 00000KT 8SM OVC008 13/12 A2990 RMK AO2 SLP144 T01330122
                 =
2018-05-23 06:41 METAR KEEN 231041Z AUTO 00000KT 10SM BKN008 OVC019 13/12 A2990 RMK AO2 =
2018-05-23 06:32 METAR KEEN 231032Z AUTO 10SM SCT008 OVC019 13/12 A2990 RMK AO2 =
2018-05-23 05:56 METAR KEEN 230956Z AUTO 00000KT 10SM OVC019 13/12 A2988 RMK AO2 SLP137 T01280117
                 =
2018-05-23 05:37 METAR KEEN 230937Z AUTO 20004KT 10SM FEW007 OVC017 13/12 A2988 RMK AO2 =
2018-05-23 04:56 METAR KEEN 230856Z AUTO 00000KT 10SM OVC007 13/12 A2987 RMK AO2 SLP134 T01280117
                 55006 =
2018-05-23 03:56 METAR KEEN 230756Z AUTO 00000KT 10SM OVC007 13/12 A2987 RMK AO2 SLP134 T01280117
                 =
2018-05-23 02:56 METAR KEEN 230656Z AUTO 20005KT 10SM OVC007 13/12 A2987 RMK AO2 SLP134 T01280117
                 =
2018-05-23 01:56 METAR KEEN 230556Z AUTO 20004KT 10SM OVC009 13/11 A2989 RMK AO2 SLP140 60000
                 T01280111 10144 20128 58018 =
2018-05-23 01:15 METAR KEEN 230515Z AUTO 18004KT 10SM OVC009 13/11 A2990 RMK AO2 =
2018-05-23 00:56 METAR KEEN 230456Z AUTO 19004KT 10SM OVC011 13/11 A2991 RMK AO2 RAB17E31 SLP148
                 P0000 T01280111 401830078 =
2018-05-22 23:56 METAR KEEN 230356Z AUTO 16003KT 10SM OVC013 13/11 A2993 RMK AO2 SLP154 T01280106
                 =
2018-05-22 23:43 METAR KEEN 230343Z AUTO 00000KT 10SM OVC013 13/10 A2993 RMK AO2 =
2018-05-22 21:56 METAR KEEN 230156Z AUTO 18008KT 10SM BKN025 OVC034 13/09 A2995 RMK AO2 SLP161
                 T01280089 =
2018-05-22 21:47 METAR KEEN 230147Z AUTO 18005KT 10SM BKN027 OVC034 13/09 A2996 RMK AO2 =
2018-05-22 20:56 METAR KEEN 230056Z AUTO 17006KT 10SM FEW027 BKN040 OVC050 13/08 A2998 RMK AO2
                 SLP172 T01330083 =
2018-05-22 20:33 METAR KEEN 230033Z AUTO 17008KT 10SM SCT027 OVC042 13/08 A2998 RMK AO2 =
2018-05-22 20:12 METAR KEEN 230012Z AUTO 18008KT 10SM BKN027 OVC042 14/08 A2999 RMK AO2 =
2018-05-22 19:56 METAR KEEN 222356Z AUTO 17008KT 10SM OVC042 14/09 A2998 RMK AO2 RAB35E45 SLP173
                 P0000 60000 T01440089 10183 20144 56022 =
2018-05-22 18:56 METAR KEEN 222256Z AUTO 18007KT 10SM OVC055 15/11 A3001 RMK AO2 RAE34 SLP184
                 P0000 T01500106 =
2018-05-22 17:56 METAR KEEN 222156Z AUTO 19010G15KT 10SM -RA FEW031 SCT040 OVC060 16/11 A3001 RMK
                 AO2 RAB00 SLP184 P0000 T01560111 =
2018-05-22 15:56 METAR KEEN 221956Z AUTO 18004KT 10SM OVC070 17/14 A3008 RMK AO2 RAB1858E48
                 SLP206 P0000 T01670139 =
2018-05-22 14:56 METAR KEEN 221856Z AUTO 17006KT 10SM OVC075 18/13 A3007 RMK AO2 RAE07 SLP203
                 P0000 T01830133 =
2018-05-22 13:56 METAR KEEN 221756Z AUTO 00000KT 10SM -RA FEW050 SCT065 OVC090 17/15 A3010 RMK
                 AO2 SLP213 P0000 60001 T01720150 10172 20111 58021 =
2018-05-22 12:56 METAR KEEN 221656Z AUTO 36003KT 10SM -RA FEW070 OVC095 16/14 A3012 RMK AO2
                 SLP221 P0000 T01560139 =
2018-05-22 11:56 METAR KEEN 221556Z AUTO 36006KT 10SM -RA OVC090 14/13 A3015 RMK AO2 SLP229 P0001
                 T01440128 =
2018-05-22 10:56 METAR KEEN 221456Z AUTO 33003KT 10SM -RA BKN080 OVC090 14/12 A3016 RMK AO2
                 SLP234 P0000 60000 T01390117 58007 =
2018-05-22 09:56 METAR KEEN 221356Z AUTO 00000KT 10SM -RA OVC080 14/11 A3018 RMK AO2 RAB55 SLP240
                 P0000 T01390106 =

Support USWX by starting your Amazon purchase here.